createdAt,value
2022-11-05T00:01:11.259Z,95.54
2022-11-05T00:03:41.666Z,95.42
2022-11-05T00:06:11.987Z,95.66
2022-11-05T00:08:42.691Z,95.87
2022-11-05T00:11:17.956Z,96.38
2022-11-05T00:13:45.426Z,96.55
2022-11-05T00:16:16.166Z,96.55
2022-11-05T00:18:46.433Z,96.46
2022-11-05T00:21:17.384Z,96.55
2022-11-05T00:23:48.259Z,96.24
2022-11-05T00:26:18.591Z,96.49
2022-11-05T00:28:48.817Z,96.77
2022-11-05T00:31:19.387Z,96.62
2022-11-05T00:33:50.033Z,96.83
2022-11-05T00:36:20.313Z,97.02
2022-11-05T00:38:50.508Z,97.19
2022-11-05T00:41:21.035Z,97.29
2022-11-05T00:43:51.839Z,97.29
2022-11-05T00:46:23.478Z,97.51
2022-11-05T00:48:54.342Z,97.84
2022-11-05T00:51:24.481Z,98.02
2022-11-05T00:53:55.124Z,98.15
2022-11-05T00:56:25.658Z,98.52
2022-11-05T00:58:56.678Z,98.18
2022-11-05T01:01:27.188Z,98.27
2022-11-05T01:03:57.610Z,98.87
2022-11-05T01:06:28.140Z,99.03
2022-11-05T01:08:58.401Z,98.23
2022-11-05T01:11:28.749Z,98.39
2022-11-05T01:14:00.429Z,98.70
2022-11-05T01:16:30.793Z,98.91
2022-11-05T01:19:02.444Z,98.76
2022-11-05T01:21:32.960Z,98.30
2022-11-05T01:24:04.341Z,98.26
2022-11-05T01:26:34.836Z,98.17
2022-11-05T01:29:05.259Z,98.07
2022-11-05T01:31:35.767Z,98.07
2022-11-05T01:34:06.129Z,97.67
2022-11-05T01:36:36.856Z,97.73
2022-11-05T01:39:07.567Z,97.59
2022-11-05T01:41:38.398Z,97.59
2022-11-05T01:44:28.402Z,97.62
2022-11-05T01:46:59.000Z,97.68
2022-11-05T01:49:32.164Z,97.76
2022-11-05T01:52:05.125Z,97.60
2022-11-05T01:54:36.426Z,97.40
2022-11-05T01:57:09.825Z,97.29
2022-11-05T01:59:43.137Z,97.29
2022-11-05T02:02:14.365Z,98.43
2022-11-05T02:04:50.609Z,97.92
2022-11-05T02:07:23.133Z,97.59
2022-11-05T02:10:16.601Z,98.53
2022-11-05T02:12:48.985Z,98.30
2022-11-05T02:15:39.855Z,98.36
2022-11-05T02:18:13.208Z,98.82
2022-11-05T02:21:08.177Z,98.82
2022-11-05T02:23:44.363Z,99.05
2022-11-05T02:26:34.238Z,98.67
2022-11-05T02:29:43.109Z,98.39
2022-11-05T02:32:28.159Z,98.71
2022-11-05T02:35:04.051Z,98.39
2022-11-05T02:37:43.604Z,98.39
2022-11-05T02:40:28.472Z,98.51
2022-11-05T02:43:25.303Z,97.82
2022-11-05T02:46:13.635Z,97.88
2022-11-05T02:48:49.837Z,97.72
2022-11-05T02:51:29.103Z,97.72
2022-11-05T02:57:00.359Z,97.45
2022-11-05T02:59:31.026Z,97.48
2022-11-05T03:02:05.728Z,97.54
2022-11-05T03:04:36.689Z,97.30
2022-11-05T03:07:16.335Z,97.42
2022-11-05T03:13:24.760Z,97.23
2022-11-05T03:16:14.593Z,97.04
2022-11-05T03:18:56.591Z,97.35
2022-11-05T03:21:32.653Z,97.65
2022-11-05T03:24:06.245Z,97.40
2022-11-05T03:26:39.541Z,97.40
2022-11-05T03:29:13.710Z,97.24
2022-11-05T03:31:47.521Z,97.38
2022-11-05T03:34:20.905Z,97.30
2022-11-05T03:37:12.014Z,97.32
2022-11-05T03:39:46.210Z,97.02
2022-11-05T03:42:19.544Z,97.21
2022-11-05T03:44:52.938Z,96.97
2022-11-05T03:47:29.338Z,96.68
2022-11-05T03:50:11.527Z,96.69
2022-11-05T03:52:47.611Z,96.69
2022-11-05T03:55:18.784Z,96.85
2022-11-05T03:57:52.250Z,96.47
2022-11-05T04:00:23.414Z,96.49
2022-11-05T04:02:53.733Z,96.49
2022-11-05T04:05:24.124Z,97.13
2022-11-05T04:07:54.536Z,97.08
2022-11-05T04:10:24.817Z,97.16
2022-11-05T04:12:54.984Z,97.16
2022-11-05T04:15:25.370Z,96.88
2022-11-05T04:17:55.703Z,96.88
2022-11-05T04:20:29.272Z,97.59
2022-11-05T04:23:02.490Z,97.59
2022-11-05T04:25:32.807Z,97.72
2022-11-05T04:28:03.546Z,97.70
2022-11-05T04:30:33.695Z,97.52
2022-11-05T04:33:12.899Z,97.52
2022-11-05T04:35:46.144Z,97.91
2022-11-05T04:38:19.458Z,97.85
2022-11-05T04:40:50.317Z,98.28
2022-11-05T04:43:21.682Z,97.93
2022-11-05T04:45:52.477Z,98.01
2022-11-05T04:48:22.828Z,98.06
2022-11-05T04:50:54.222Z,97.96
2022-11-05T04:53:24.580Z,98.13
2022-11-05T04:55:54.872Z,97.83
2022-11-05T04:58:25.176Z,97.83
2022-11-05T05:00:55.584Z,97.92
2022-11-05T05:03:26.194Z,97.62
2022-11-05T05:06:03.994Z,97.17
2022-11-05T05:08:33.530Z,94.93
2022-11-05T05:11:06.628Z,97.38
2022-11-05T05:13:37.474Z,97.38
2022-11-05T05:16:09.981Z,98.17
2022-11-05T05:18:45.900Z,97.92
2022-11-05T05:21:12.161Z,97.92
2022-11-05T05:23:43.688Z,97.35
2022-11-05T05:26:14.612Z,97.98
2022-11-05T05:28:46.506Z,97.77
2022-11-05T05:31:16.778Z,98.16
2022-11-05T05:33:47.160Z,98.65
2022-11-05T05:36:17.473Z,98.65
2022-11-05T05:38:48.804Z,98.63
2022-11-05T05:41:19.175Z,98.63
2022-11-05T05:43:49.665Z,98.60
2022-11-05T05:46:19.976Z,98.75
2022-11-05T05:48:52.156Z,98.80
2022-11-05T05:51:22.542Z,98.69
2022-11-05T05:53:53.790Z,98.70
2022-11-05T05:56:24.034Z,98.70
2022-11-05T05:58:54.587Z,98.05
2022-11-05T06:01:24.987Z,97.38
2022-11-05T06:03:56.679Z,97.83
2022-11-05T06:06:28.426Z,98.23
2022-11-05T06:08:59.095Z,96.90
2022-11-05T06:11:29.615Z,96.31
2022-11-05T06:13:59.827Z,96.74
2022-11-05T06:16:32.395Z,97.14
2022-11-05T06:19:03.326Z,97.47
2022-11-05T06:21:33.731Z,96.14
2022-11-05T06:24:05.317Z,95.50
2022-11-05T06:26:35.944Z,95.50
2022-11-05T06:29:06.305Z,95.60
2022-11-05T06:31:37.704Z,95.13
2022-11-05T06:34:09.014Z,95.12
2022-11-05T06:36:40.200Z,95.12
2022-11-05T06:39:12.297Z,94.82
2022-11-05T06:42:17.840Z,94.00
2022-11-05T06:44:35.828Z,93.72
2022-11-05T06:47:06.186Z,92.88
2022-11-05T06:49:37.081Z,92.13
2022-11-05T06:52:07.340Z,92.00
2022-11-05T06:54:38.294Z,92.00
2022-11-05T06:57:11.046Z,91.23
2022-11-05T06:59:41.868Z,91.06
2022-11-05T07:02:13.128Z,91.06
2022-11-05T07:04:44.192Z,89.42
2022-11-05T07:07:15.665Z,86.92
2022-11-05T07:09:46.467Z,86.45
2022-11-05T07:12:16.919Z,86.84
2022-11-05T07:14:47.276Z,86.54
2022-11-05T07:17:20.447Z,83.11
2022-11-05T07:19:59.510Z,84.93
2022-11-05T07:22:37.755Z,84.95
2022-11-05T07:25:08.927Z,84.57
2022-11-05T07:27:40.583Z,85.63
2022-11-05T07:30:11.373Z,85.63
2022-11-05T07:32:42.717Z,82.91
2022-11-05T07:35:15.847Z,82.90
2022-11-05T07:37:50.299Z,82.90
2022-11-05T07:40:22.237Z,74.45
2022-11-05T07:42:55.377Z,74.45
2022-11-05T07:45:28.859Z,73.74
2022-11-05T07:51:45.748Z,67.70
2022-11-05T07:57:32.818Z,62.44
2022-11-05T08:00:01.827Z,62.44
2022-11-05T08:02:34.405Z,59.92
2022-11-05T08:05:06.643Z,60.23
2022-11-05T08:07:37.763Z,56.45
2022-11-05T08:10:08.763Z,56.45
2022-11-05T08:12:41.587Z,53.50
2022-11-05T08:15:12.726Z,55.97
2022-11-05T08:17:43.836Z,55.97
2022-11-05T08:20:15.761Z,51.64
2022-11-05T08:22:47.199Z,51.64
2022-11-05T08:25:17.694Z,53.61
2022-11-05T08:28:09.781Z,53.61
2022-11-05T08:30:40.282Z,52.18
2022-11-05T08:33:14.110Z,56.38
2022-11-05T08:35:44.957Z,54.81
2022-11-05T08:38:34.331Z,56.77
2022-11-05T08:41:00.284Z,59.20
2022-11-05T08:43:30.712Z,57.33
2022-11-05T08:46:02.542Z,61.38
2022-11-05T08:48:33.426Z,62.78
2022-11-05T08:51:03.798Z,63.87
2022-11-05T08:53:35.375Z,66.20
2022-11-05T08:56:05.943Z,65.11
2022-11-05T08:58:36.892Z,64.38
2022-11-05T09:01:12.369Z,64.38
2022-11-05T09:03:46.590Z,61.94
2022-11-05T09:06:20.680Z,62.78
2022-11-05T09:08:51.790Z,62.67
2022-11-05T09:11:56.959Z,62.95
2022-11-05T09:14:02.503Z,62.95
2022-11-05T09:16:36.344Z,60.24
2022-11-05T09:19:06.923Z,62.35
2022-11-05T09:21:39.035Z,63.63
2022-11-05T09:24:11.235Z,63.63
2022-11-05T09:26:41.618Z,63.24
2022-11-05T09:29:14.519Z,57.26
2022-11-05T09:31:44.446Z,61.06
2022-11-05T09:34:16.079Z,59.07
2022-11-05T09:36:51.254Z,59.26
2022-11-05T09:39:21.396Z,60.55
2022-11-05T09:45:05.131Z,58.80
2022-11-05T09:47:41.722Z,60.40
2022-11-05T09:50:15.398Z,60.40
2022-11-05T09:52:46.631Z,60.80
2022-11-05T09:55:33.805Z,60.80
2022-11-05T09:58:14.329Z,64.92
2022-11-05T10:00:47.391Z,63.34
2022-11-05T10:03:21.101Z,65.86
2022-11-05T10:05:55.388Z,65.19
2022-11-05T10:08:30.281Z,63.23
2022-11-05T10:11:07.900Z,60.30
2022-11-05T10:13:48.966Z,61.79
2022-11-05T10:16:43.324Z,61.79
2022-11-05T10:19:17.495Z,62.20
2022-11-05T10:22:06.111Z,62.54
2022-11-05T10:24:22.129Z,62.55
2022-11-05T10:27:02.437Z,63.39
2022-11-05T10:29:37.317Z,64.49
2022-11-05T10:32:09.885Z,66.00
2022-11-05T10:34:41.791Z,64.64
2022-11-05T10:37:12.284Z,62.59
2022-11-05T10:39:48.816Z,62.59
2022-11-05T10:42:57.685Z,63.41
2022-11-05T10:45:57.304Z,61.29
2022-11-05T10:48:44.084Z,64.71
2022-11-05T10:51:17.759Z,67.81
2022-11-05T10:54:01.618Z,67.81
2022-11-05T10:56:37.481Z,61.12
2022-11-05T10:59:23.620Z,61.54
2022-11-05T11:02:16.290Z,55.84
2022-11-05T11:04:52.162Z,55.84
2022-11-05T11:07:28.826Z,55.85
2022-11-05T11:09:59.348Z,54.25
2022-11-05T11:12:35.682Z,54.83
2022-11-05T11:15:25.368Z,51.13
2022-11-05T11:17:56.821Z,48.63
2022-11-05T11:20:32.565Z,51.98
2022-11-05T11:23:35.537Z,51.98
2022-11-05T11:26:07.576Z,51.24
2022-11-05T11:28:51.627Z,53.12
2022-11-05T11:31:25.775Z,53.37
2022-11-05T11:34:01.523Z,53.37
2022-11-05T11:36:37.881Z,54.62
2022-11-05T11:39:09.716Z,55.69
2022-11-05T11:42:03.431Z,54.94
2022-11-05T11:44:37.246Z,57.43
2022-11-05T11:47:19.370Z,55.75
2022-11-05T11:49:55.060Z,54.45
2022-11-05T11:52:34.926Z,55.30
2022-11-05T11:55:31.364Z,55.17
2022-11-05T11:58:11.301Z,55.17
2022-11-05T12:00:45.882Z,54.81
2022-11-05T12:03:27.452Z,55.42
2022-11-05T12:06:09.159Z,56.11
2022-11-05T12:09:17.152Z,57.96
2022-11-05T12:11:53.564Z,57.96
2022-11-05T12:14:32.834Z,59.77
2022-11-05T12:20:41.410Z,60.59
2022-11-05T12:23:26.385Z,60.25
2022-11-05T12:26:19.185Z,60.25
2022-11-05T12:29:17.307Z,61.10
2022-11-05T12:31:56.859Z,63.91
2022-11-05T12:34:46.909Z,63.91
2022-11-05T12:37:38.969Z,64.37
2022-11-05T12:40:38.203Z,62.90
2022-11-05T12:43:37.692Z,62.90
2022-11-05T12:46:28.653Z,63.77
2022-11-05T12:49:20.263Z,60.23
2022-11-05T12:52:17.379Z,60.23
2022-11-05T12:54:55.995Z,60.72
2022-11-05T12:57:29.444Z,60.72
2022-11-05T13:00:03.247Z,62.86
2022-11-05T13:02:58.812Z,62.86
2022-11-05T13:06:05.820Z,62.98
2022-11-05T13:08:48.102Z,63.16
2022-11-05T13:11:21.026Z,63.80
2022-11-05T13:20:17.481Z,63.90
2022-11-05T13:22:59.522Z,65.05
2022-11-05T13:25:35.152Z,64.90
2022-11-05T13:28:32.394Z,64.90
2022-11-05T13:37:43.544Z,66.30
2022-11-05T13:40:16.758Z,67.10
2022-11-05T13:42:50.506Z,67.72
2022-11-05T13:45:29.956Z,67.72
2022-11-05T13:48:19.906Z,69.10
2022-11-05T13:50:53.479Z,70.00
2022-11-05T13:53:47.393Z,71.20
2022-11-05T13:56:30.350Z,71.20
2022-11-05T13:59:35.145Z,71.94
2022-11-05T14:02:18.128Z,72.62
2022-11-05T14:05:01.244Z,72.62
2022-11-05T14:07:41.174Z,73.52
2022-11-05T14:16:30.939Z,74.89
2022-11-05T14:19:20.368Z,74.89
2022-11-05T14:22:01.424Z,75.71
2022-11-05T14:24:43.497Z,76.25
2022-11-05T14:27:23.890Z,76.33
2022-11-05T14:29:58.422Z,77.81
2022-11-05T14:35:26.481Z,79.14
2022-11-05T14:38:00.402Z,79.71
2022-11-05T14:40:42.688Z,79.49
2022-11-05T14:43:24.129Z,79.56
2022-11-05T14:46:03.708Z,79.56
2022-11-05T15:15:04.757Z,82.97
2022-11-05T15:18:13.205Z,83.10
2022-11-05T15:20:47.599Z,83.49
2022-11-05T15:23:23.524Z,83.86
2022-11-05T15:26:12.362Z,83.86
2022-11-05T15:28:48.000Z,84.64
2022-11-05T15:31:30.518Z,84.66
2022-11-05T15:34:25.647Z,84.66
2022-11-05T15:36:58.824Z,85.37
2022-11-05T15:39:32.449Z,85.37
2022-11-05T15:42:08.543Z,86.13
2022-11-05T15:44:48.842Z,86.68
2022-11-05T15:56:39.557Z,88.22
2022-11-05T15:59:46.817Z,88.18
2022-11-05T16:02:34.107Z,88.63
2022-11-05T16:05:07.846Z,88.95
2022-11-05T16:07:45.377Z,88.88
2022-11-05T16:10:22.709Z,88.98
2022-11-05T16:13:18.077Z,89.23
2022-11-05T16:15:57.647Z,89.37
2022-11-05T16:18:37.791Z,89.37
2022-11-05T16:21:20.308Z,89.14
2022-11-05T16:23:53.614Z,89.14
2022-11-05T16:29:14.581Z,88.40
2022-11-05T16:31:54.333Z,88.19
2022-11-05T16:34:42.133Z,88.19
2022-11-05T16:37:15.410Z,87.53
2022-11-05T16:39:48.666Z,87.07
2022-11-05T16:42:39.671Z,86.60
2022-11-05T16:45:12.569Z,86.55
2022-11-05T16:47:44.658Z,86.96
2022-11-05T16:50:20.572Z,86.88
2022-11-05T16:52:51.304Z,86.25
2022-11-05T16:55:28.908Z,86.25
2022-11-05T16:57:59.898Z,85.64
2022-11-05T17:00:31.656Z,86.87
2022-11-05T17:03:01.995Z,86.87
2022-11-05T17:05:32.956Z,86.68
2022-11-05T17:08:07.343Z,86.68
2022-11-05T17:10:37.486Z,86.75
2022-11-05T17:13:10.040Z,86.58
2022-11-05T17:15:45.735Z,86.70
2022-11-05T17:18:19.468Z,87.49
2022-11-05T17:20:53.231Z,87.71
2022-11-05T17:23:25.533Z,88.34
2022-11-05T17:25:58.928Z,88.25
2022-11-05T17:28:29.823Z,87.66
2022-11-05T17:31:02.602Z,87.96
2022-11-05T17:33:33.636Z,87.82
2022-11-05T17:36:14.210Z,87.93
2022-11-05T17:38:45.101Z,88.14
2022-11-05T17:41:23.281Z,88.38
2022-11-05T17:43:58.379Z,87.86
2022-11-05T17:46:30.157Z,89.19
2022-11-05T17:49:06.860Z,89.19
2022-11-05T17:51:39.875Z,89.58
2022-11-05T17:54:11.543Z,89.73
2022-11-05T17:56:44.759Z,89.65
2022-11-05T17:59:15.237Z,89.95
2022-11-05T18:01:49.266Z,90.61
2022-11-05T18:04:29.335Z,91.18
2022-11-05T18:07:00.107Z,91.25
2022-11-05T18:09:30.888Z,91.59
2022-11-05T18:12:01.750Z,91.59
2022-11-05T18:14:35.357Z,91.25
2022-11-05T18:17:08.044Z,91.05
2022-11-05T18:19:38.877Z,91.11
2022-11-05T18:22:09.609Z,91.35
2022-11-05T18:24:44.550Z,91.21
2022-11-05T18:27:15.419Z,91.93
2022-11-05T18:29:52.090Z,92.48
2022-11-05T18:32:24.156Z,92.29
2022-11-05T18:34:54.576Z,92.08
2022-11-05T18:37:26.113Z,92.50
2022-11-05T18:39:56.672Z,92.67
2022-11-05T18:42:37.796Z,92.67
2022-11-05T18:45:10.238Z,93.10
2022-11-05T18:47:40.792Z,93.67
2022-11-05T18:50:11.228Z,93.67
2022-11-05T18:52:45.100Z,93.17
2022-11-05T18:55:15.654Z,93.17
2022-11-05T18:57:48.733Z,93.13
2022-11-05T19:00:20.652Z,93.81
2022-11-05T19:02:52.065Z,93.21
2022-11-05T19:05:29.329Z,93.48
2022-11-05T19:08:22.653Z,94.49
2022-11-05T19:10:53.164Z,94.73
2022-11-05T19:13:24.473Z,94.20
2022-11-05T19:16:19.795Z,92.88
2022-11-05T19:19:10.872Z,92.13
2022-11-05T19:21:41.865Z,92.26
2022-11-05T19:24:18.344Z,91.58
2022-11-05T19:26:52.185Z,91.97
2022-11-05T19:29:23.511Z,92.35
2022-11-05T19:32:03.878Z,92.63
2022-11-05T19:34:59.525Z,92.63
2022-11-05T19:40:19.071Z,94.07
2022-11-05T19:42:51.676Z,94.19
2022-11-05T19:45:44.065Z,94.00
2022-11-05T19:48:03.997Z,93.40
2022-11-05T19:50:35.344Z,93.65
2022-11-05T19:53:06.005Z,93.73
2022-11-05T19:55:41.257Z,93.63
2022-11-05T19:58:11.979Z,93.28
2022-11-05T20:04:14.618Z,93.73
2022-11-05T20:06:45.474Z,93.54
2022-11-05T20:09:22.049Z,93.43
2022-11-05T20:12:44.269Z,93.26
2022-11-05T20:14:56.051Z,94.20
2022-11-05T20:17:26.379Z,94.20
2022-11-05T20:19:57.706Z,93.89
2022-11-05T20:22:28.217Z,93.89
2022-11-05T20:24:59.173Z,94.05
2022-11-05T20:27:32.198Z,94.03
2022-11-05T20:30:05.215Z,94.55
2022-11-05T20:49:38.548Z,94.77
2022-11-05T20:52:09.005Z,94.63
2022-11-05T20:54:39.834Z,94.63
2022-11-05T20:57:31.044Z,94.76
2022-11-05T21:00:15.248Z,94.66
2022-11-05T21:05:48.258Z,94.68
2022-11-05T21:08:18.794Z,94.97
2022-11-05T21:10:51.426Z,94.97
2022-11-05T21:13:23.422Z,94.95
2022-11-05T21:15:56.518Z,95.05
2022-11-05T21:18:35.583Z,95.05
2022-11-05T21:21:09.645Z,94.81
2022-11-05T21:23:44.010Z,94.95
2022-11-05T21:26:18.967Z,94.95
2022-11-05T21:28:49.827Z,94.83
2022-11-05T21:31:20.072Z,95.00
2022-11-05T21:33:55.290Z,94.91
2022-11-05T21:39:13.195Z,94.53
2022-11-05T21:40:16.693Z,94.97
2022-11-05T21:42:56.128Z,94.97
2022-11-05T21:48:28.256Z,94.73
2022-11-05T21:51:19.998Z,94.75
2022-11-05T21:53:51.982Z,94.75
2022-11-05T21:56:32.525Z,94.38
2022-11-05T21:59:29.668Z,94.33
2022-11-05T22:02:04.706Z,94.05
2022-11-05T22:04:47.721Z,94.05
2022-11-05T22:07:24.621Z,93.88
2022-11-05T22:10:16.136Z,94.02
2022-11-05T22:12:48.931Z,93.98
2022-11-05T22:15:20.624Z,93.53
2022-11-05T22:17:53.011Z,93.42
2022-11-05T22:20:24.207Z,93.14
2022-11-05T22:22:54.468Z,92.97
2022-11-05T22:25:25.436Z,92.93
2022-11-05T22:27:57.141Z,92.93
2022-11-05T22:30:27.392Z,92.90
2022-11-05T22:32:58.846Z,92.90
2022-11-05T22:35:33.410Z,92.69
2022-11-05T22:38:04.288Z,93.01
2022-11-05T22:40:35.804Z,92.81
2022-11-05T22:43:06.214Z,92.81
2022-11-05T22:45:37.983Z,93.19
2022-11-05T22:48:08.428Z,93.77
2022-11-05T22:50:40.128Z,93.67
2022-11-05T22:53:10.161Z,93.33
2022-11-05T22:55:40.939Z,93.28
2022-11-05T22:58:11.606Z,93.46
2022-11-05T23:00:43.388Z,93.00
2022-11-05T23:03:13.922Z,92.53
2022-11-05T23:05:44.937Z,92.46
2022-11-05T23:08:15.770Z,92.28
2022-11-05T23:10:46.347Z,92.28
2022-11-05T23:13:16.989Z,92.39
2022-11-05T23:15:47.933Z,92.36
2022-11-05T23:18:19.940Z,92.21
2022-11-05T23:20:51.928Z,92.34
2022-11-05T23:23:22.328Z,92.34
2022-11-05T23:25:59.586Z,92.44
2022-11-05T23:28:29.951Z,92.33
2022-11-05T23:31:00.831Z,92.31
2022-11-05T23:33:33.543Z,91.95
2022-11-05T23:36:04.455Z,91.85
2022-11-05T23:38:36.017Z,92.34
2022-11-05T23:41:06.641Z,92.34
2022-11-05T23:43:37.162Z,92.73
2022-11-05T23:46:08.809Z,92.73
2022-11-05T23:48:39.716Z,92.13
2022-11-05T23:51:11.563Z,91.60
2022-11-05T23:53:48.676Z,91.20
2022-11-05T23:56:19.140Z,91.11
2022-11-05T23:58:49.558Z,91.04
